sensor_id;sensor_type;location;lat;lon;timestamp;pressure;altitude;pressure_sealevel;temperature;humidity
41234;BME280;26968;42.686;23.352;2023-06-24T00:00:55;95208.19;;;26.13;51.54
41234;BME280;26968;42.686;23.352;2023-06-24T00:03:21;95137.84;;;25.71;51.56
41234;BME280;26968;42.686;23.352;2023-06-24T00:05:46;95221.06;;;26.20;51.63
41234;BME280;26968;42.686;23.352;2023-06-24T00:08:18;95249.19;;;26.31;51.72
41234;BME280;26968;42.686;23.352;2023-06-24T00:10:48;95242.03;;;26.19;51.99
41234;BME280;26968;42.686;23.352;2023-06-24T00:13:15;95235.38;;;26.13;51.98
41234;BME280;26968;42.686;23.352;2023-06-24T00:15:41;95234.25;;;26.18;52.01
41234;BME280;26968;42.686;23.352;2023-06-24T00:18:10;95233.81;;;26.12;51.74
41234;BME280;26968;42.686;23.352;2023-06-24T00:20:35;95231.88;;;26.12;51.80
41234;BME280;26968;42.686;23.352;2023-06-24T00:23:01;95237.31;;;26.12;52.08
41234;BME280;26968;42.686;23.352;2023-06-24T00:25:26;95240.72;;;26.06;52.30
41234;BME280;26968;42.686;23.352;2023-06-24T00:27:52;95222.03;;;26.01;51.95
41234;BME280;26968;42.686;23.352;2023-06-24T00:30:18;95193.41;;;25.77;51.91
41234;BME280;26968;42.686;23.352;2023-06-24T00:32:43;95216.03;;;25.85;51.85
41234;BME280;26968;42.686;23.352;2023-06-24T00:35:09;95239.53;;;26.03;52.06
41234;BME280;26968;42.686;23.352;2023-06-24T00:37:38;95234.00;;;25.96;52.27
41234;BME280;26968;42.686;23.352;2023-06-24T00:40:04;95205.06;;;25.78;52.15
41234;BME280;26968;42.686;23.352;2023-06-24T00:42:35;95225.78;;;25.89;52.43
41234;BME280;26968;42.686;23.352;2023-06-24T00:45:01;95229.22;;;25.86;52.18
41234;BME280;26968;42.686;23.352;2023-06-24T00:47:29;95245.16;;;25.88;52.75
41234;BME280;26968;42.686;23.352;2023-06-24T00:49:56;95234.66;;;25.86;52.78
41234;BME280;26968;42.686;23.352;2023-06-24T00:52:22;95224.75;;;25.71;52.80
41234;BME280;26968;42.686;23.352;2023-06-24T00:54:47;95177.06;;;25.44;52.75
41234;BME280;26968;42.686;23.352;2023-06-24T00:57:13;95204.06;;;25.59;52.66
41234;BME280;26968;42.686;23.352;2023-06-24T00:59:39;95207.91;;;25.58;52.81
41234;BME280;26968;42.686;23.352;2023-06-24T01:02:06;95200.84;;;25.54;52.57
41234;BME280;26968;42.686;23.352;2023-06-24T01:04:32;95227.19;;;25.80;52.68
41234;BME280;26968;42.686;23.352;2023-06-24T01:06:59;95207.28;;;25.68;52.73
41234;BME280;26968;42.686;23.352;2023-06-24T01:09:25;95214.31;;;25.73;52.77
41234;BME280;26968;42.686;23.352;2023-06-24T01:11:51;95165.84;;;25.45;52.79
41234;BME280;26968;42.686;23.352;2023-06-24T01:14:17;95202.56;;;25.65;53.05
41234;BME280;26968;42.686;23.352;2023-06-24T01:17:09;95218.16;;;25.72;53.27
41234;BME280;26968;42.686;23.352;2023-06-24T01:22:19;95214.28;;;25.69;53.24
41234;BME280;26968;42.686;23.352;2023-06-24T01:31:06;95169.50;;;25.30;53.55
41234;BME280;26968;42.686;23.352;2023-06-24T01:33:46;95189.72;;;25.32;53.81
41234;BME280;26968;42.686;23.352;2023-06-24T01:36:15;95213.19;;;25.48;53.70
41234;BME280;26968;42.686;23.352;2023-06-24T01:38:47;95210.84;;;25.46;53.56
41234;BME280;26968;42.686;23.352;2023-06-24T01:41:16;95147.81;;;25.04;53.81
41234;BME280;26968;42.686;23.352;2023-06-24T01:43:44;95196.19;;;25.24;53.93
41234;BME280;26968;42.686;23.352;2023-06-24T01:46:12;95232.47;;;25.39;54.22
41234;BME280;26968;42.686;23.352;2023-06-24T01:48:40;95245.59;;;25.37;54.10
41234;BME280;26968;42.686;23.352;2023-06-24T01:51:10;95249.03;;;25.34;53.86
41234;BME280;26968;42.686;23.352;2023-06-24T01:53:46;95260.50;;;24.97;54.72
41234;BME280;26968;42.686;23.352;2023-06-24T01:56:14;95257.59;;;24.22;57.00
41234;BME280;26968;42.686;23.352;2023-06-24T01:58:41;95230.97;;;23.89;57.51
41234;BME280;26968;42.686;23.352;2023-06-24T02:01:07;95194.34;;;23.76;57.72
41234;BME280;26968;42.686;23.352;2023-06-24T02:03:33;95257.66;;;24.26;57.35
41234;BME280;26968;42.686;23.352;2023-06-24T02:06:00;95261.56;;;24.28;57.49
41234;BME280;26968;42.686;23.352;2023-06-24T02:08:29;95271.72;;;24.31;57.30
41234;BME280;26968;42.686;23.352;2023-06-24T02:10:57;95284.25;;;24.39;57.35
41234;BME280;26968;42.686;23.352;2023-06-24T02:13:24;95244.31;;;24.17;57.56
41234;BME280;26968;42.686;23.352;2023-06-24T02:15:51;95206.34;;;23.94;57.38
41234;BME280;26968;42.686;23.352;2023-06-24T02:18:17;95209.97;;;24.02;57.41
41234;BME280;26968;42.686;23.352;2023-06-24T02:20:43;95218.94;;;24.06;57.82
41234;BME280;26968;42.686;23.352;2023-06-24T02:23:10;95256.94;;;24.29;57.65
41234;BME280;26968;42.686;23.352;2023-06-24T02:25:38;95275.84;;;24.25;57.81
41234;BME280;26968;42.686;23.352;2023-06-24T02:28:05;95197.19;;;23.83;57.98
41234;BME280;26968;42.686;23.352;2023-06-24T02:30:34;95238.97;;;24.01;57.86
41234;BME280;26968;42.686;23.352;2023-06-24T02:33:00;95276.56;;;24.22;57.84
41234;BME280;26968;42.686;23.352;2023-06-24T02:35:25;95248.94;;;23.97;58.22
41234;BME280;26968;42.686;23.352;2023-06-24T02:37:51;95277.19;;;24.15;58.08
41234;BME280;26968;42.686;23.352;2023-06-24T02:40:16;95284.56;;;24.18;58.25
41234;BME280;26968;42.686;23.352;2023-06-24T02:42:42;95299.34;;;24.02;59.37
41234;BME280;26968;42.686;23.352;2023-06-24T02:45:08;95247.53;;;23.65;59.46
41234;BME280;26968;42.686;23.352;2023-06-24T02:47:35;95304.88;;;23.90;59.80
41234;BME280;26968;42.686;23.352;2023-06-24T02:50:03;95308.28;;;24.21;59.64
41234;BME280;26968;42.686;23.352;2023-06-24T02:52:30;95290.78;;;24.19;59.55
41234;BME280;26968;42.686;23.352;2023-06-24T02:54:57;95308.38;;;24.25;59.82
41234;BME280;26968;42.686;23.352;2023-06-24T02:57:24;95292.56;;;24.11;59.70
41234;BME280;26968;42.686;23.352;2023-06-24T02:59:51;95313.50;;;24.30;59.51
41234;BME280;26968;42.686;23.352;2023-06-24T03:02:16;95279.59;;;24.01;59.55
41234;BME280;26968;42.686;23.352;2023-06-24T03:04:42;95328.63;;;24.31;59.61
41234;BME280;26968;42.686;23.352;2023-06-24T03:07:09;95330.88;;;24.10;60.21
41234;BME280;26968;42.686;23.352;2023-06-24T03:09:36;95309.25;;;23.94;60.60
41234;BME280;26968;42.686;23.352;2023-06-24T03:12:02;95276.81;;;23.78;60.71
41234;BME280;26968;42.686;23.352;2023-06-24T03:14:27;95279.94;;;23.80;60.50
41234;BME280;26968;42.686;23.352;2023-06-24T03:16:53;95309.91;;;24.07;60.52
41234;BME280;26968;42.686;23.352;2023-06-24T03:19:18;95302.06;;;24.02;60.01
41234;BME280;26968;42.686;23.352;2023-06-24T03:21:44;95331.81;;;24.17;60.09
41234;BME280;26968;42.686;23.352;2023-06-24T03:24:09;95320.97;;;24.17;60.31
41234;BME280;26968;42.686;23.352;2023-06-24T03:26:36;95325.16;;;24.15;60.58
41234;BME280;26968;42.686;23.352;2023-06-24T03:29:02;95313.69;;;24.02;60.64
41234;BME280;26968;42.686;23.352;2023-06-24T03:31:28;95315.66;;;24.05;60.59
41234;BME280;26968;42.686;23.352;2023-06-24T03:33:54;95343.44;;;24.18;60.72
41234;BME280;26968;42.686;23.352;2023-06-24T03:36:20;95334.28;;;24.07;60.67
41234;BME280;26968;42.686;23.352;2023-06-24T03:38:45;95309.47;;;23.85;60.83
41234;BME280;26968;42.686;23.352;2023-06-24T03:41:12;95329.50;;;24.00;60.94
41234;BME280;26968;42.686;23.352;2023-06-24T03:43:39;95358.81;;;24.14;60.91
41234;BME280;26968;42.686;23.352;2023-06-24T03:46:04;95326.06;;;23.84;60.91
41234;BME280;26968;42.686;23.352;2023-06-24T03:48:30;95360.03;;;24.16;61.09
41234;BME280;26968;42.686;23.352;2023-06-24T03:50:55;95363.53;;;24.17;61.50
41234;BME280;26968;42.686;23.352;2023-06-24T03:53:21;95370.34;;;24.11;61.57
41234;BME280;26968;42.686;23.352;2023-06-24T03:55:46;95349.84;;;24.10;61.17
41234;BME280;26968;42.686;23.352;2023-06-24T03:58:12;95340.91;;;24.09;61.43
41234;BME280;26968;42.686;23.352;2023-06-24T04:00:39;95361.69;;;24.21;61.20
41234;BME280;26968;42.686;23.352;2023-06-24T04:03:08;95346.41;;;24.13;61.23
41234;BME280;26968;42.686;23.352;2023-06-24T04:05:34;95340.13;;;24.09;61.17
41234;BME280;26968;42.686;23.352;2023-06-24T04:07:59;95361.03;;;24.08;61.01
41234;BME280;26968;42.686;23.352;2023-06-24T04:10:25;95345.91;;;24.07;60.80
41234;BME280;26968;42.686;23.352;2023-06-24T04:12:50;95331.00;;;23.98;60.76
41234;BME280;26968;42.686;23.352;2023-06-24T04:15:16;95349.84;;;24.10;60.51
41234;BME280;26968;42.686;23.352;2023-06-24T04:17:41;95327.13;;;23.99;60.62
41234;BME280;26968;42.686;23.352;2023-06-24T04:20:09;95328.41;;;24.05;60.67
41234;BME280;26968;42.686;23.352;2023-06-24T04:22:40;95305.75;;;23.94;60.49
41234;BME280;26968;42.686;23.352;2023-06-24T04:25:06;95347.59;;;24.31;60.39
41234;BME280;26968;42.686;23.352;2023-06-24T04:27:32;95349.56;;;24.34;60.14
41234;BME280;26968;42.686;23.352;2023-06-24T04:29:59;95293.41;;;23.96;60.75
41234;BME280;26968;42.686;23.352;2023-06-24T04:32:24;95303.66;;;24.22;60.76
41234;BME280;26968;42.686;23.352;2023-06-24T04:34:50;95309.16;;;24.26;60.78
41234;BME280;26968;42.686;23.352;2023-06-24T04:37:15;95326.06;;;24.38;60.99
41234;BME280;26968;42.686;23.352;2023-06-24T04:39:42;95345.72;;;24.54;60.86
41234;BME280;26968;42.686;23.352;2023-06-24T04:42:08;95355.13;;;24.60;60.78
41234;BME280;26968;42.686;23.352;2023-06-24T04:44:33;95332.16;;;24.54;60.37
41234;BME280;26968;42.686;23.352;2023-06-24T04:46:59;95346.84;;;24.73;60.37
41234;BME280;26968;42.686;23.352;2023-06-24T04:49:24;95341.00;;;24.71;60.43
41234;BME280;26968;42.686;23.352;2023-06-24T04:51:50;95360.16;;;24.81;60.25
41234;BME280;26968;42.686;23.352;2023-06-24T04:54:15;95361.81;;;24.86;60.22
41234;BME280;26968;42.686;23.352;2023-06-24T04:56:41;95371.59;;;24.90;59.92
41234;BME280;26968;42.686;23.352;2023-06-24T04:59:06;95358.91;;;24.94;59.32
41234;BME280;26968;42.686;23.352;2023-06-24T05:01:32;95364.34;;;24.94;59.30
41234;BME280;26968;42.686;23.352;2023-06-24T05:03:57;95343.34;;;24.91;59.50
41234;BME280;26968;42.686;23.352;2023-06-24T05:06:23;95326.56;;;24.86;58.96
41234;BME280;26968;42.686;23.352;2023-06-24T05:08:48;95345.75;;;24.96;58.87
41234;BME280;26968;42.686;23.352;2023-06-24T05:11:14;95342.69;;;24.98;58.96
41234;BME280;26968;42.686;23.352;2023-06-24T05:13:39;95342.75;;;25.02;58.75
41234;BME280;26968;42.686;23.352;2023-06-24T05:16:05;95320.94;;;24.94;58.93
41234;BME280;26968;42.686;23.352;2023-06-24T05:18:30;95354.91;;;25.11;59.11
41234;BME280;26968;42.686;23.352;2023-06-24T05:20:56;95350.72;;;25.14;59.04
41234;BME280;26968;42.686;23.352;2023-06-24T05:23:21;95323.81;;;25.05;58.63
41234;BME280;26968;42.686;23.352;2023-06-24T05:25:47;95315.66;;;25.05;58.17
41234;BME280;26968;42.686;23.352;2023-06-24T05:28:12;95271.88;;;24.84;57.80
41234;BME280;26968;42.686;23.352;2023-06-24T05:30:38;95337.31;;;25.24;57.27
41234;BME280;26968;42.686;23.352;2023-06-24T05:33:03;95323.69;;;25.21;57.11
41234;BME280;26968;42.686;23.352;2023-06-24T05:35:28;95345.34;;;25.40;56.88
41234;BME280;26968;42.686;23.352;2023-06-24T05:37:54;95323.38;;;25.26;57.07
41234;BME280;26968;42.686;23.352;2023-06-24T05:40:20;95344.66;;;25.47;56.61
41234;BME280;26968;42.686;23.352;2023-06-24T05:42:45;95325.72;;;25.27;56.80
41234;BME280;26968;42.686;23.352;2023-06-24T05:45:10;95306.69;;;25.24;56.49
41234;BME280;26968;42.686;23.352;2023-06-24T05:47:37;95349.06;;;25.55;56.30
41234;BME280;26968;42.686;23.352;2023-06-24T05:50:03;95354.97;;;25.60;56.28
41234;BME280;26968;42.686;23.352;2023-06-24T05:52:29;95339.38;;;25.57;56.11
41234;BME280;26968;42.686;23.352;2023-06-24T05:54:54;95342.22;;;25.64;56.38
41234;BME280;26968;42.686;23.352;2023-06-24T05:57:20;95299.84;;;25.33;57.30
41234;BME280;26968;42.686;23.352;2023-06-24T05:59:45;95337.41;;;25.54;57.64
41234;BME280;26968;42.686;23.352;2023-06-24T06:02:11;95312.94;;;25.28;57.00
41234;BME280;26968;42.686;23.352;2023-06-24T06:04:37;95316.66;;;25.43;57.03
41234;BME280;26968;42.686;23.352;2023-06-24T06:07:03;95310.88;;;25.44;57.03
41234;BME280;26968;42.686;23.352;2023-06-24T06:09:29;95304.72;;;25.47;57.02
41234;BME280;26968;42.686;23.352;2023-06-24T06:11:54;95330.59;;;25.64;56.76
41234;BME280;26968;42.686;23.352;2023-06-24T06:14:20;95329.41;;;25.61;56.76
41234;BME280;26968;42.686;23.352;2023-06-24T06:16:45;95321.28;;;25.65;56.74
41234;BME280;26968;42.686;23.352;2023-06-24T06:19:10;95312.91;;;25.51;55.32
41234;BME280;26968;42.686;23.352;2023-06-24T06:21:37;95288.69;;;25.38;54.85
41234;BME280;26968;42.686;23.352;2023-06-24T06:24:03;95333.03;;;25.72;54.97
41234;BME280;26968;42.686;23.352;2023-06-24T06:26:28;95300.78;;;25.45;55.47
41234;BME280;26968;42.686;23.352;2023-06-24T06:28:54;95299.88;;;25.60;55.61
41234;BME280;26968;42.686;23.352;2023-06-24T06:31:19;95304.06;;;25.57;55.31
41234;BME280;26968;42.686;23.352;2023-06-24T06:33:46;95338.22;;;25.81;55.54
41234;BME280;26968;42.686;23.352;2023-06-24T06:36:12;95276.53;;;25.55;55.54
41234;BME280;26968;42.686;23.352;2023-06-24T06:38:39;95313.06;;;25.88;54.86
41234;BME280;26968;42.686;23.352;2023-06-24T06:41:04;95322.50;;;25.94;54.42
41234;BME280;26968;42.686;23.352;2023-06-24T06:43:29;95321.22;;;25.88;54.71
41234;BME280;26968;42.686;23.352;2023-06-24T06:45:55;95309.22;;;25.89;55.04
41234;BME280;26968;42.686;23.352;2023-06-24T06:48:21;95338.19;;;26.07;55.06
41234;BME280;26968;42.686;23.352;2023-06-24T06:50:46;95275.19;;;25.68;54.82
41234;BME280;26968;42.686;23.352;2023-06-24T06:53:12;95323.06;;;26.10;54.69
41234;BME280;26968;42.686;23.352;2023-06-24T06:55:37;95347.44;;;26.29;54.36
41234;BME280;26968;42.686;23.352;2023-06-24T06:58:04;95336.88;;;26.24;54.90
41234;BME280;26968;42.686;23.352;2023-06-24T07:00:30;95343.22;;;26.35;53.96
41234;BME280;26968;42.686;23.352;2023-06-24T07:02:56;95346.31;;;26.34;53.93
41234;BME280;26968;42.686;23.352;2023-06-24T07:05:21;95317.00;;;26.20;53.72
41234;BME280;26968;42.686;23.352;2023-06-24T07:07:46;95313.81;;;26.14;53.58
41234;BME280;26968;42.686;23.352;2023-06-24T07:10:15;95342.81;;;26.33;53.54
41234;BME280;26968;42.686;23.352;2023-06-24T07:12:42;95304.00;;;26.06;53.75
41234;BME280;26968;42.686;23.352;2023-06-24T07:15:07;95312.28;;;26.17;54.37
41234;BME280;26968;42.686;23.352;2023-06-24T07:17:33;95304.53;;;26.16;54.53
41234;BME280;26968;42.686;23.352;2023-06-24T07:19:59;95321.28;;;26.21;55.63
41234;BME280;26968;42.686;23.352;2023-06-24T07:22:24;95332.34;;;26.35;55.24
41234;BME280;26968;42.686;23.352;2023-06-24T07:24:49;95316.09;;;26.39;55.38
41234;BME280;26968;42.686;23.352;2023-06-24T07:27:15;95326.78;;;26.58;54.79
41234;BME280;26968;42.686;23.352;2023-06-24T07:29:40;95320.28;;;26.66;54.46
41234;BME280;26968;42.686;23.352;2023-06-24T07:32:06;95333.59;;;26.78;54.75
41234;BME280;26968;42.686;23.352;2023-06-24T07:34:33;95258.78;;;26.25;55.02
41234;BME280;26968;42.686;23.352;2023-06-24T07:36:58;95078.19;;;25.15;54.32
41234;BME280;26968;42.686;23.352;2023-06-24T07:39:24;95305.03;;;26.58;54.09
41234;BME280;26968;42.686;23.352;2023-06-24T07:41:49;95330.94;;;26.82;53.62
41234;BME280;26968;42.686;23.352;2023-06-24T07:44:15;95263.97;;;26.33;54.55
41234;BME280;26968;42.686;23.352;2023-06-24T07:46:40;95311.97;;;26.56;54.05
41234;BME280;26968;42.686;23.352;2023-06-24T07:49:06;95312.06;;;26.63;53.81
41234;BME280;26968;42.686;23.352;2023-06-24T07:51:31;95293.59;;;26.42;53.86
41234;BME280;26968;42.686;23.352;2023-06-24T07:53:57;95327.63;;;26.62;53.56
41234;BME280;26968;42.686;23.352;2023-06-24T07:56:22;95308.59;;;26.62;53.71
41234;BME280;26968;42.686;23.352;2023-06-24T07:58:48;95330.69;;;26.94;54.03
41234;BME280;26968;42.686;23.352;2023-06-24T08:01:13;95329.22;;;27.04;54.20
41234;BME280;26968;42.686;23.352;2023-06-24T08:03:38;95331.88;;;26.97;53.55
41234;BME280;26968;42.686;23.352;2023-06-24T08:06:04;95342.13;;;27.10;54.52
41234;BME280;26968;42.686;23.352;2023-06-24T08:08:30;95255.78;;;26.67;54.69
41234;BME280;26968;42.686;23.352;2023-06-24T08:10:55;95267.28;;;26.90;53.91
41234;BME280;26968;42.686;23.352;2023-06-24T08:13:21;95328.59;;;27.21;52.52
41234;BME280;26968;42.686;23.352;2023-06-24T08:15:46;95294.59;;;27.01;53.49
41234;BME280;26968;42.686;23.352;2023-06-24T08:18:12;95299.41;;;27.18;53.40
41234;BME280;26968;42.686;23.352;2023-06-24T08:20:37;95289.50;;;26.96;53.00
41234;BME280;26968;42.686;23.352;2023-06-24T08:23:02;95336.06;;;27.27;53.46
41234;BME280;26968;42.686;23.352;2023-06-24T08:25:28;95334.25;;;27.46;52.95
41234;BME280;26968;42.686;23.352;2023-06-24T08:27:53;95306.53;;;27.33;52.70
41234;BME280;26968;42.686;23.352;2023-06-24T08:30:19;95322.91;;;27.40;52.34
41234;BME280;26968;42.686;23.352;2023-06-24T08:32:44;95322.97;;;27.47;51.17
41234;BME280;26968;42.686;23.352;2023-06-24T08:35:10;95270.66;;;27.24;51.47
41234;BME280;26968;42.686;23.352;2023-06-24T08:37:36;95316.78;;;27.50;50.68
41234;BME280;26968;42.686;23.352;2023-06-24T08:40:02;95316.84;;;27.54;50.74
41234;BME280;26968;42.686;23.352;2023-06-24T08:42:29;95287.56;;;27.47;50.99
41234;BME280;26968;42.686;23.352;2023-06-24T08:44:55;95304.06;;;27.65;51.30
41234;BME280;26968;42.686;23.352;2023-06-24T08:47:21;95300.59;;;27.72;50.48
41234;BME280;26968;42.686;23.352;2023-06-24T08:49:53;95274.91;;;27.73;50.61
41234;BME280;26968;42.686;23.352;2023-06-24T08:52:25;95304.25;;;27.97;52.33
41234;BME280;26968;42.686;23.352;2023-06-24T08:54:51;95275.00;;;27.83;52.09
41234;BME280;26968;42.686;23.352;2023-06-24T08:57:19;95280.13;;;28.02;51.06
41234;BME280;26968;42.686;23.352;2023-06-24T08:59:45;95290.69;;;28.11;51.25
41234;BME280;26968;42.686;23.352;2023-06-24T09:02:11;95305.19;;;28.22;51.16
41234;BME280;26968;42.686;23.352;2023-06-24T09:04:36;95294.66;;;28.21;49.50
41234;BME280;26968;42.686;23.352;2023-06-24T09:07:02;95297.41;;;28.31;49.17
41234;BME280;26968;42.686;23.352;2023-06-24T09:09:28;95295.88;;;28.34;49.42
41234;BME280;26968;42.686;23.352;2023-06-24T09:12:01;95299.78;;;28.36;51.13
41234;BME280;26968;42.686;23.352;2023-06-24T09:14:29;95293.56;;;28.36;49.70
41234;BME280;26968;42.686;23.352;2023-06-24T09:16:56;95272.81;;;28.17;50.72
41234;BME280;26968;42.686;23.352;2023-06-24T09:19:26;95284.59;;;28.39;51.14
41234;BME280;26968;42.686;23.352;2023-06-24T09:21:56;95256.94;;;28.37;50.08
41234;BME280;26968;42.686;23.352;2023-06-24T09:24:36;95274.88;;;28.41;49.03
41234;BME280;26968;42.686;23.352;2023-06-24T09:27:03;95287.34;;;28.50;48.52
41234;BME280;26968;42.686;23.352;2023-06-24T09:29:32;95276.81;;;28.41;49.46
41234;BME280;26968;42.686;23.352;2023-06-24T09:31:58;95288.53;;;28.56;49.50
41234;BME280;26968;42.686;23.352;2023-06-24T09:34:28;95305.69;;;28.53;49.47
41234;BME280;26968;42.686;23.352;2023-06-24T09:36:57;95280.34;;;28.45;48.80
41234;BME280;26968;42.686;23.352;2023-06-24T09:39:24;95296.03;;;28.80;48.18
41234;BME280;26968;42.686;23.352;2023-06-24T09:44:21;95278.91;;;28.90;48.11
41234;BME280;26968;42.686;23.352;2023-06-24T09:46:49;95298.41;;;29.74;46.90
41234;BME280;26968;42.686;23.352;2023-06-24T09:49:14;95278.66;;;30.50;45.13
41234;BME280;26968;42.686;23.352;2023-06-24T09:51:45;95271.69;;;31.52;43.19
41234;BME280;26968;42.686;23.352;2023-06-24T09:54:12;95294.41;;;32.62;42.49
41234;BME280;26968;42.686;23.352;2023-06-24T09:56:43;95264.94;;;33.23;40.76
41234;BME280;26968;42.686;23.352;2023-06-24T09:59:12;95270.13;;;34.07;36.92
41234;BME280;26968;42.686;23.352;2023-06-24T10:01:43;95270.03;;;34.70;36.46
41234;BME280;26968;42.686;23.352;2023-06-24T10:04:16;95277.47;;;35.41;34.75
41234;BME280;26968;42.686;23.352;2023-06-24T10:06:43;95267.13;;;35.78;35.05
41234;BME280;26968;42.686;23.352;2023-06-24T10:09:08;95272.56;;;36.39;33.94
41234;BME280;26968;42.686;23.352;2023-06-24T10:11:34;95260.03;;;36.76;32.43
41234;BME280;26968;42.686;23.352;2023-06-24T10:14:00;95271.31;;;37.32;31.43
41234;BME280;26968;42.686;23.352;2023-06-24T10:16:25;95237.25;;;37.10;32.82
41234;BME280;26968;42.686;23.352;2023-06-24T10:18:51;95237.53;;;37.63;31.91
41234;BME280;26968;42.686;23.352;2023-06-24T10:21:16;95242.03;;;38.04;29.38
41234;BME280;26968;42.686;23.352;2023-06-24T10:23:51;95245.84;;;38.41;31.06
41234;BME280;26968;42.686;23.352;2023-06-24T10:26:28;95211.13;;;38.27;31.50
41234;BME280;26968;42.686;23.352;2023-06-24T10:34:27;95207.69;;;38.67;29.54
41234;BME280;26968;42.686;23.352;2023-06-24T10:37:03;95234.78;;;39.03;29.31
41234;BME280;26968;42.686;23.352;2023-06-24T10:39:54;95195.41;;;38.86;27.53
41234;BME280;26968;42.686;23.352;2023-06-24T10:42:39;95214.34;;;39.18;28.14
41234;BME280;26968;42.686;23.352;2023-06-24T10:47:52;95188.41;;;39.03;29.71
41234;BME280;26968;42.686;23.352;2023-06-24T10:50:20;95194.47;;;39.20;28.50
41234;BME280;26968;42.686;23.352;2023-06-24T10:52:50;95168.97;;;38.94;28.44
41234;BME280;26968;42.686;23.352;2023-06-24T10:55:22;95166.25;;;39.03;28.46
41234;BME280;26968;42.686;23.352;2023-06-24T10:57:48;95168.84;;;38.97;27.50
41234;BME280;26968;42.686;23.352;2023-06-24T11:00:15;95191.06;;;39.16;26.69
41234;BME280;26968;42.686;23.352;2023-06-24T11:02:41;95145.34;;;38.80;27.66
41234;BME280;26968;42.686;23.352;2023-06-24T11:05:07;95173.47;;;39.01;26.55
41234;BME280;26968;42.686;23.352;2023-06-24T11:07:37;95185.56;;;39.34;26.10
41234;BME280;26968;42.686;23.352;2023-06-24T11:10:09;95161.31;;;39.16;24.96
41234;BME280;26968;42.686;23.352;2023-06-24T11:12:37;95165.75;;;38.95;28.09
41234;BME280;26968;42.686;23.352;2023-06-24T11:15:07;95182.47;;;39.32;25.97
41234;BME280;26968;42.686;23.352;2023-06-24T11:17:34;95180.31;;;39.27;27.11
41234;BME280;26968;42.686;23.352;2023-06-24T11:20:00;95181.44;;;39.66;26.58
41234;BME280;26968;42.686;23.352;2023-06-24T11:22:27;95179.13;;;39.55;26.81
41234;BME280;26968;42.686;23.352;2023-06-24T11:24:55;95168.94;;;39.61;24.66
41234;BME280;26968;42.686;23.352;2023-06-24T11:27:26;95170.94;;;39.70;23.42
41234;BME280;26968;42.686;23.352;2023-06-24T11:29:53;95156.47;;;39.48;24.18
41234;BME280;26968;42.686;23.352;2023-06-24T11:32:19;95133.81;;;39.49;23.82
41234;BME280;26968;42.686;23.352;2023-06-24T11:34:44;95182.22;;;40.12;22.87
41234;BME280;26968;42.686;23.352;2023-06-24T11:37:15;95182.66;;;40.20;23.93
41234;BME280;26968;42.686;23.352;2023-06-24T11:39:41;95163.56;;;39.85;25.16
41234;BME280;26968;42.686;23.352;2023-06-24T11:42:10;95176.69;;;39.85;25.68
41234;BME280;26968;42.686;23.352;2023-06-24T11:44:41;95172.81;;;39.64;25.75
41234;BME280;26968;42.686;23.352;2023-06-24T11:47:09;95172.13;;;39.32;25.48
41234;BME280;26968;42.686;23.352;2023-06-24T11:49:55;95137.34;;;38.73;24.98
41234;BME280;26968;42.686;23.352;2023-06-24T11:52:32;95157.69;;;38.48;25.09
41234;BME280;26968;42.686;23.352;2023-06-24T11:54:59;95156.84;;;38.08;28.08
41234;BME280;26968;42.686;23.352;2023-06-24T12:00:37;95138.84;;;37.47;27.23
41234;BME280;26968;42.686;23.352;2023-06-24T12:03:07;95147.19;;;37.34;28.24
41234;BME280;26968;42.686;23.352;2023-06-24T12:05:36;95102.22;;;37.08;29.33
41234;BME280;26968;42.686;23.352;2023-06-24T12:08:06;95071.16;;;36.70;28.77
41234;BME280;26968;42.686;23.352;2023-06-24T12:10:34;95096.34;;;36.85;29.72
41234;BME280;26968;42.686;23.352;2023-06-24T12:13:01;95094.56;;;36.91;30.05
41234;BME280;26968;42.686;23.352;2023-06-24T12:15:27;95082.81;;;36.87;30.12
41234;BME280;26968;42.686;23.352;2023-06-24T12:17:53;95097.50;;;36.96;29.84
41234;BME280;26968;42.686;23.352;2023-06-24T12:20:18;95099.53;;;36.83;30.58
41234;BME280;26968;42.686;23.352;2023-06-24T12:22:48;95119.44;;;36.78;30.99
41234;BME280;26968;42.686;23.352;2023-06-24T12:25:15;95112.16;;;36.46;31.46
41234;BME280;26968;42.686;23.352;2023-06-24T12:27:42;95107.84;;;36.32;30.24
41234;BME280;26968;42.686;23.352;2023-06-24T12:30:09;95074.88;;;35.87;30.77
41234;BME280;26968;42.686;23.352;2023-06-24T12:32:35;95111.88;;;35.90;30.88
41234;BME280;26968;42.686;23.352;2023-06-24T12:35:01;95094.34;;;35.68;32.23
41234;BME280;26968;42.686;23.352;2023-06-24T12:37:32;95085.75;;;35.37;32.56
41234;BME280;26968;42.686;23.352;2023-06-24T12:40:02;95070.69;;;34.96;32.96
41234;BME280;26968;42.686;23.352;2023-06-24T12:42:28;95083.03;;;34.75;33.33
41234;BME280;26968;42.686;23.352;2023-06-24T12:44:54;95090.31;;;34.50;34.11
41234;BME280;26968;42.686;23.352;2023-06-24T12:47:20;95130.41;;;34.51;34.19
41234;BME280;26968;42.686;23.352;2023-06-24T12:49:45;95146.91;;;34.34;35.36
41234;BME280;26968;42.686;23.352;2023-06-24T12:52:12;95150.31;;;34.22;35.37
41234;BME280;26968;42.686;23.352;2023-06-24T12:54:38;95151.72;;;34.10;34.99
41234;BME280;26968;42.686;23.352;2023-06-24T12:57:04;95179.94;;;34.15;35.22
41234;BME280;26968;42.686;23.352;2023-06-24T12:59:29;95143.97;;;33.66;35.93
41234;BME280;26968;42.686;23.352;2023-06-24T13:01:55;95131.38;;;33.49;36.15
41234;BME280;26968;42.686;23.352;2023-06-24T13:04:20;95178.75;;;33.56;37.11
41234;BME280;26968;42.686;23.352;2023-06-24T13:06:48;95144.38;;;33.25;37.30
41234;BME280;26968;42.686;23.352;2023-06-24T13:09:14;95155.28;;;33.28;37.46
41234;BME280;26968;42.686;23.352;2023-06-24T13:11:40;95055.59;;;32.58;38.11